sensor_id;sensor_type;location;lat;lon;timestamp;P1;durP1;ratioP1;P2;durP2;ratioP2
21798;SDS011;24973;47.178;15.316;2024-03-23T00:53:24;241.87;;;106.00;;
21798;SDS011;24973;47.178;15.316;2024-03-23T00:56:12;235.23;;;99.87;;
21798;SDS011;24973;47.178;15.316;2024-03-23T00:58:59;234.83;;;101.90;;
21798;SDS011;24973;47.178;15.316;2024-03-23T01:01:47;225.23;;;100.00;;
21798;SDS011;24973;47.178;15.316;2024-03-23T01:04:34;237.87;;;105.40;;
21798;SDS011;24973;47.178;15.316;2024-03-23T01:07:22;231.77;;;102.30;;
21798;SDS011;24973;47.178;15.316;2024-03-23T01:10:10;221.27;;;95.70;;
21798;SDS011;24973;47.178;15.316;2024-03-23T01:12:58;219.93;;;94.67;;
21798;SDS011;24973;47.178;15.316;2024-03-23T01:15:47;224.33;;;96.20;;
21798;SDS011;24973;47.178;15.316;2024-03-23T01:18:37;227.03;;;100.50;;
21798;SDS011;24973;47.178;15.316;2024-03-23T01:21:24;230.03;;;103.87;;
21798;SDS011;24973;47.178;15.316;2024-03-23T01:24:12;209.80;;;90.90;;
21798;SDS011;24973;47.178;15.316;2024-03-23T01:27:00;211.17;;;91.33;;
21798;SDS011;24973;47.178;15.316;2024-03-23T01:29:49;213.23;;;90.20;;
21798;SDS011;24973;47.178;15.316;2024-03-23T01:32:38;220.33;;;95.77;;
21798;SDS011;24973;47.178;15.316;2024-03-23T01:35:25;216.47;;;95.70;;
21798;SDS011;24973;47.178;15.316;2024-03-23T01:38:13;211.20;;;92.20;;
21798;SDS011;24973;47.178;15.316;2024-03-23T01:41:00;220.03;;;93.33;;
21798;SDS011;24973;47.178;15.316;2024-03-23T01:43:49;221.70;;;91.60;;
21798;SDS011;24973;47.178;15.316;2024-03-23T01:46:36;225.70;;;93.40;;
21798;SDS011;24973;47.178;15.316;2024-03-23T01:49:27;215.50;;;91.90;;
21798;SDS011;24973;47.178;15.316;2024-03-23T01:52:14;216.23;;;89.53;;
21798;SDS011;24973;47.178;15.316;2024-03-23T01:55:02;218.80;;;92.47;;
21798;SDS011;24973;47.178;15.316;2024-03-23T01:57:49;218.30;;;91.50;;
21798;SDS011;24973;47.178;15.316;2024-03-23T02:00:38;225.43;;;97.67;;
21798;SDS011;24973;47.178;15.316;2024-03-23T02:03:26;220.43;;;95.13;;
21798;SDS011;24973;47.178;15.316;2024-03-23T02:06:14;222.90;;;93.23;;
21798;SDS011;24973;47.178;15.316;2024-03-23T02:09:01;218.43;;;92.07;;
21798;SDS011;24973;47.178;15.316;2024-03-23T02:11:51;217.10;;;90.37;;
21798;SDS011;24973;47.178;15.316;2024-03-23T02:14:38;227.97;;;95.53;;
21798;SDS011;24973;47.178;15.316;2024-03-23T02:17:27;218.20;;;92.20;;
21798;SDS011;24973;47.178;15.316;2024-03-23T02:20:16;219.17;;;92.30;;
21798;SDS011;24973;47.178;15.316;2024-03-23T02:23:05;213.73;;;87.80;;
21798;SDS011;24973;47.178;15.316;2024-03-23T02:25:53;211.97;;;87.40;;
21798;SDS011;24973;47.178;15.316;2024-03-23T02:28:40;209.90;;;87.87;;
21798;SDS011;24973;47.178;15.316;2024-03-23T02:31:28;218.53;;;93.00;;
21798;SDS011;24973;47.178;15.316;2024-03-23T02:34:14;212.70;;;87.30;;
21798;SDS011;24973;47.178;15.316;2024-03-23T02:37:02;215.73;;;88.00;;
21798;SDS011;24973;47.178;15.316;2024-03-23T02:39:58;215.67;;;89.60;;
21798;SDS011;24973;47.178;15.316;2024-03-23T02:42:46;205.30;;;85.37;;
21798;SDS011;24973;47.178;15.316;2024-03-23T02:45:33;222.27;;;92.20;;
21798;SDS011;24973;47.178;15.316;2024-03-23T02:48:21;210.13;;;89.10;;
21798;SDS011;24973;47.178;15.316;2024-03-23T02:51:08;212.13;;;89.60;;
21798;SDS011;24973;47.178;15.316;2024-03-23T02:53:55;208.50;;;88.57;;
21798;SDS011;24973;47.178;15.316;2024-03-23T02:56:44;213.03;;;88.77;;
21798;SDS011;24973;47.178;15.316;2024-03-23T02:59:32;208.77;;;88.40;;
21798;SDS011;24973;47.178;15.316;2024-03-23T03:02:19;205.00;;;86.77;;
21798;SDS011;24973;47.178;15.316;2024-03-23T03:05:07;205.00;;;85.80;;
21798;SDS011;24973;47.178;15.316;2024-03-23T03:07:54;201.97;;;84.17;;
21798;SDS011;24973;47.178;15.316;2024-03-23T03:10:42;205.83;;;84.73;;
21798;SDS011;24973;47.178;15.316;2024-03-23T03:13:30;221.53;;;93.63;;
21798;SDS011;24973;47.178;15.316;2024-03-23T03:16:18;217.70;;;90.60;;
21798;SDS011;24973;47.178;15.316;2024-03-23T03:19:05;216.37;;;87.07;;
21798;SDS011;24973;47.178;15.316;2024-03-23T03:21:53;214.27;;;82.63;;
21798;SDS011;24973;47.178;15.316;2024-03-23T03:24:40;218.73;;;86.77;;
21798;SDS011;24973;47.178;15.316;2024-03-23T03:27:28;221.30;;;88.10;;
21798;SDS011;24973;47.178;15.316;2024-03-23T03:30:16;215.60;;;82.47;;
21798;SDS011;24973;47.178;15.316;2024-03-23T03:33:04;219.73;;;85.57;;
21798;SDS011;24973;47.178;15.316;2024-03-23T03:35:51;218.70;;;85.03;;
21798;SDS011;24973;47.178;15.316;2024-03-23T03:38:39;227.20;;;87.83;;
21798;SDS011;24973;47.178;15.316;2024-03-23T03:41:26;236.37;;;92.70;;
21798;SDS011;24973;47.178;15.316;2024-03-23T03:44:14;220.33;;;83.43;;
21798;SDS011;24973;47.178;15.316;2024-03-23T03:47:02;216.13;;;84.27;;
21798;SDS011;24973;47.178;15.316;2024-03-23T03:49:51;229.47;;;88.07;;
21798;SDS011;24973;47.178;15.316;2024-03-23T03:52:38;219.43;;;84.57;;
21798;SDS011;24973;47.178;15.316;2024-03-23T03:55:25;229.63;;;89.47;;
21798;SDS011;24973;47.178;15.316;2024-03-23T03:58:13;222.23;;;85.17;;
21798;SDS011;24973;47.178;15.316;2024-03-23T04:01:01;227.03;;;88.90;;
21798;SDS011;24973;47.178;15.316;2024-03-23T04:03:49;230.57;;;88.60;;
21798;SDS011;24973;47.178;15.316;2024-03-23T04:06:37;234.37;;;89.03;;
21798;SDS011;24973;47.178;15.316;2024-03-23T04:09:24;229.90;;;87.43;;
21798;SDS011;24973;47.178;15.316;2024-03-23T04:12:12;218.50;;;84.23;;
21798;SDS011;24973;47.178;15.316;2024-03-23T04:14:59;228.30;;;87.27;;
21798;SDS011;24973;47.178;15.316;2024-03-23T04:17:49;227.30;;;84.37;;
21798;SDS011;24973;47.178;15.316;2024-03-23T04:20:37;241.50;;;90.90;;
21798;SDS011;24973;47.178;15.316;2024-03-23T04:23:25;234.27;;;86.20;;
21798;SDS011;24973;47.178;15.316;2024-03-23T04:26:12;235.77;;;90.13;;
21798;SDS011;24973;47.178;15.316;2024-03-23T04:29:00;227.37;;;87.23;;
21798;SDS011;24973;47.178;15.316;2024-03-23T04:31:47;224.13;;;85.37;;
21798;SDS011;24973;47.178;15.316;2024-03-23T04:34:35;234.83;;;90.07;;
21798;SDS011;24973;47.178;15.316;2024-03-23T04:37:23;224.20;;;83.60;;
21798;SDS011;24973;47.178;15.316;2024-03-23T04:40:11;220.03;;;83.33;;
21798;SDS011;24973;47.178;15.316;2024-03-23T04:42:59;228.23;;;86.87;;
21798;SDS011;24973;47.178;15.316;2024-03-23T04:45:47;231.80;;;86.77;;
21798;SDS011;24973;47.178;15.316;2024-03-23T04:48:35;235.87;;;89.90;;
21798;SDS011;24973;47.178;15.316;2024-03-23T04:51:23;235.87;;;88.07;;
21798;SDS011;24973;47.178;15.316;2024-03-23T04:54:13;228.57;;;83.60;;
21798;SDS011;24973;47.178;15.316;2024-03-23T04:57:01;230.87;;;86.40;;
21798;SDS011;24973;47.178;15.316;2024-03-23T04:59:49;239.20;;;91.63;;
21798;SDS011;24973;47.178;15.316;2024-03-23T05:02:36;251.97;;;93.90;;
21798;SDS011;24973;47.178;15.316;2024-03-23T05:05:24;238.80;;;91.40;;
21798;SDS011;24973;47.178;15.316;2024-03-23T05:08:12;238.60;;;90.57;;
21798;SDS011;24973;47.178;15.316;2024-03-23T05:11:00;239.30;;;91.43;;
21798;SDS011;24973;47.178;15.316;2024-03-23T05:13:48;231.90;;;86.80;;
21798;SDS011;24973;47.178;15.316;2024-03-23T05:16:35;243.40;;;91.90;;
21798;SDS011;24973;47.178;15.316;2024-03-23T05:19:23;234.83;;;87.53;;
21798;SDS011;24973;47.178;15.316;2024-03-23T05:22:10;235.97;;;86.17;;
21798;SDS011;24973;47.178;15.316;2024-03-23T05:24:58;231.83;;;84.57;;
21798;SDS011;24973;47.178;15.316;2024-03-23T05:27:46;248.17;;;90.40;;
21798;SDS011;24973;47.178;15.316;2024-03-23T05:30:34;245.90;;;91.73;;
21798;SDS011;24973;47.178;15.316;2024-03-23T05:33:21;237.37;;;85.20;;
21798;SDS011;24973;47.178;15.316;2024-03-23T05:36:09;253.73;;;94.60;;
21798;SDS011;24973;47.178;15.316;2024-03-23T05:38:57;248.27;;;91.70;;
21798;SDS011;24973;47.178;15.316;2024-03-23T05:41:45;247.60;;;91.27;;
21798;SDS011;24973;47.178;15.316;2024-03-23T05:44:34;256.17;;;94.13;;
21798;SDS011;24973;47.178;15.316;2024-03-23T05:47:23;255.73;;;92.10;;
21798;SDS011;24973;47.178;15.316;2024-03-23T05:50:10;253.63;;;90.77;;
21798;SDS011;24973;47.178;15.316;2024-03-23T05:52:58;251.40;;;92.13;;
21798;SDS011;24973;47.178;15.316;2024-03-23T05:55:45;262.23;;;95.73;;
21798;SDS011;24973;47.178;15.316;2024-03-23T05:58:34;266.03;;;98.60;;
21798;SDS011;24973;47.178;15.316;2024-03-23T06:01:23;268.83;;;99.70;;
21798;SDS011;24973;47.178;15.316;2024-03-23T06:04:14;261.47;;;96.30;;
21798;SDS011;24973;47.178;15.316;2024-03-23T06:07:01;260.20;;;95.33;;
21798;SDS011;24973;47.178;15.316;2024-03-23T06:09:52;260.27;;;94.73;;
21798;SDS011;24973;47.178;15.316;2024-03-23T06:12:39;267.00;;;96.87;;
21798;SDS011;24973;47.178;15.316;2024-03-23T06:15:26;267.37;;;99.00;;
21798;SDS011;24973;47.178;15.316;2024-03-23T06:18:15;262.87;;;98.43;;
21798;SDS011;24973;47.178;15.316;2024-03-23T06:21:03;251.00;;;97.60;;
21798;SDS011;24973;47.178;15.316;2024-03-23T06:23:51;280.70;;;103.03;;
21798;SDS011;24973;47.178;15.316;2024-03-23T06:26:39;278.77;;;102.03;;
21798;SDS011;24973;47.178;15.316;2024-03-23T06:29:26;275.97;;;101.73;;
21798;SDS011;24973;47.178;15.316;2024-03-23T06:32:14;275.73;;;99.97;;
21798;SDS011;24973;47.178;15.316;2024-03-23T06:35:03;278.17;;;99.70;;
21798;SDS011;24973;47.178;15.316;2024-03-23T06:37:54;287.80;;;103.27;;
21798;SDS011;24973;47.178;15.316;2024-03-23T06:40:41;298.53;;;110.40;;
21798;SDS011;24973;47.178;15.316;2024-03-23T06:43:33;297.00;;;113.07;;
21798;SDS011;24973;47.178;15.316;2024-03-23T06:46:20;282.27;;;101.13;;
21798;SDS011;24973;47.178;15.316;2024-03-23T06:49:08;298.20;;;107.73;;
21798;SDS011;24973;47.178;15.316;2024-03-23T06:51:56;286.43;;;103.77;;
21798;SDS011;24973;47.178;15.316;2024-03-23T06:54:44;285.63;;;103.57;;
21798;SDS011;24973;47.178;15.316;2024-03-23T06:57:31;308.13;;;118.53;;
21798;SDS011;24973;47.178;15.316;2024-03-23T07:00:19;283.03;;;105.33;;
21798;SDS011;24973;47.178;15.316;2024-03-23T07:03:06;285.17;;;107.27;;
21798;SDS011;24973;47.178;15.316;2024-03-23T07:05:57;282.70;;;105.73;;
21798;SDS011;24973;47.178;15.316;2024-03-23T07:08:46;287.20;;;108.47;;
21798;SDS011;24973;47.178;15.316;2024-03-23T07:11:34;295.00;;;111.37;;
21798;SDS011;24973;47.178;15.316;2024-03-23T07:14:21;286.10;;;105.77;;
21798;SDS011;24973;47.178;15.316;2024-03-23T07:17:09;285.50;;;104.63;;
21798;SDS011;24973;47.178;15.316;2024-03-23T07:19:56;292.53;;;108.27;;
21798;SDS011;24973;47.178;15.316;2024-03-23T07:22:46;293.60;;;109.80;;
21798;SDS011;24973;47.178;15.316;2024-03-23T07:25:34;299.90;;;112.60;;
21798;SDS011;24973;47.178;15.316;2024-03-23T07:28:22;300.50;;;111.40;;
21798;SDS011;24973;47.178;15.316;2024-03-23T07:31:10;303.07;;;115.47;;
21798;SDS011;24973;47.178;15.316;2024-03-23T07:33:59;298.23;;;114.93;;
21798;SDS011;24973;47.178;15.316;2024-03-23T07:36:46;328.03;;;128.20;;
21798;SDS011;24973;47.178;15.316;2024-03-23T07:39:34;314.67;;;120.50;;
21798;SDS011;24973;47.178;15.316;2024-03-23T07:42:22;308.97;;;117.93;;
21798;SDS011;24973;47.178;15.316;2024-03-23T07:45:12;308.93;;;114.70;;
21798;SDS011;24973;47.178;15.316;2024-03-23T07:47:59;313.63;;;120.73;;
21798;SDS011;24973;47.178;15.316;2024-03-23T07:50:47;323.50;;;127.13;;
21798;SDS011;24973;47.178;15.316;2024-03-23T07:53:44;332.90;;;127.20;;
21798;SDS011;24973;47.178;15.316;2024-03-23T07:56:34;345.90;;;136.53;;
21798;SDS011;24973;47.178;15.316;2024-03-23T07:59:22;335.67;;;128.83;;
21798;SDS011;24973;47.178;15.316;2024-03-23T08:02:11;338.90;;;132.47;;
21798;SDS011;24973;47.178;15.316;2024-03-23T08:04:58;335.60;;;127.67;;
21798;SDS011;24973;47.178;15.316;2024-03-23T08:07:46;327.33;;;125.30;;
21798;SDS011;24973;47.178;15.316;2024-03-23T08:10:36;352.77;;;138.53;;
21798;SDS011;24973;47.178;15.316;2024-03-23T08:13:24;340.27;;;132.63;;
21798;SDS011;24973;47.178;15.316;2024-03-23T08:16:12;353.80;;;136.70;;
21798;SDS011;24973;47.178;15.316;2024-03-23T08:19:00;357.63;;;140.63;;
21798;SDS011;24973;47.178;15.316;2024-03-23T08:21:49;364.43;;;148.23;;
21798;SDS011;24973;47.178;15.316;2024-03-23T08:24:37;371.90;;;150.50;;
21798;SDS011;24973;47.178;15.316;2024-03-23T08:27:25;354.00;;;140.40;;
21798;SDS011;24973;47.178;15.316;2024-03-23T08:30:13;362.13;;;144.57;;
21798;SDS011;24973;47.178;15.316;2024-03-23T08:33:02;375.90;;;156.03;;
21798;SDS011;24973;47.178;15.316;2024-03-23T08:35:53;377.43;;;159.97;;
21798;SDS011;24973;47.178;15.316;2024-03-23T08:38:41;402.37;;;179.43;;
21798;SDS011;24973;47.178;15.316;2024-03-23T08:41:29;384.20;;;171.27;;
21798;SDS011;24973;47.178;15.316;2024-03-23T08:44:16;372.80;;;168.97;;
21798;SDS011;24973;47.178;15.316;2024-03-23T08:47:05;374.07;;;172.33;;
21798;SDS011;24973;47.178;15.316;2024-03-23T08:49:54;374.87;;;182.03;;
21798;SDS011;24973;47.178;15.316;2024-03-23T08:52:44;380.30;;;186.73;;
21798;SDS011;24973;47.178;15.316;2024-03-23T08:55:31;384.17;;;195.40;;
21798;SDS011;24973;47.178;15.316;2024-03-23T08:58:19;365.63;;;208.17;;
21798;SDS011;24973;47.178;15.316;2024-03-23T09:01:07;369.23;;;212.90;;
21798;SDS011;24973;47.178;15.316;2024-03-23T09:03:56;385.57;;;225.97;;
21798;SDS011;24973;47.178;15.316;2024-03-23T09:06:45;386.70;;;227.47;;
21798;SDS011;24973;47.178;15.316;2024-03-23T09:09:33;394.90;;;243.07;;
21798;SDS011;24973;47.178;15.316;2024-03-23T09:12:20;392.17;;;253.10;;
21798;SDS011;24973;47.178;15.316;2024-03-23T09:15:08;381.50;;;234.23;;
21798;SDS011;24973;47.178;15.316;2024-03-23T09:17:55;392.17;;;252.97;;
21798;SDS011;24973;47.178;15.316;2024-03-23T09:20:43;394.23;;;257.80;;
21798;SDS011;24973;47.178;15.316;2024-03-23T09:23:32;395.27;;;267.20;;
21798;SDS011;24973;47.178;15.316;2024-03-23T09:26:21;395.20;;;266.90;;
21798;SDS011;24973;47.178;15.316;2024-03-23T09:29:16;400.47;;;279.30;;
21798;SDS011;24973;47.178;15.316;2024-03-23T09:32:09;401.83;;;283.10;;
21798;SDS011;24973;47.178;15.316;2024-03-23T09:34:57;398.90;;;281.33;;
21798;SDS011;24973;47.178;15.316;2024-03-23T09:37:44;403.67;;;283.47;;
21798;SDS011;24973;47.178;15.316;2024-03-23T09:40:34;405.97;;;280.87;;
21798;SDS011;24973;47.178;15.316;2024-03-23T09:43:25;401.47;;;279.97;;
21798;SDS011;24973;47.178;15.316;2024-03-23T09:46:19;411.17;;;288.43;;
21798;SDS011;24973;47.178;15.316;2024-03-23T09:49:11;403.47;;;286.90;;
21798;SDS011;24973;47.178;15.316;2024-03-23T09:51:59;394.83;;;282.50;;
21798;SDS011;24973;47.178;15.316;2024-03-23T09:54:47;395.27;;;286.33;;
21798;SDS011;24973;47.178;15.316;2024-03-23T09:57:45;414.43;;;308.20;;
21798;SDS011;24973;47.178;15.316;2024-03-23T10:00:33;419.13;;;319.97;;
21798;SDS011;24973;47.178;15.316;2024-03-23T10:03:21;405.03;;;320.20;;
21798;SDS011;24973;47.178;15.316;2024-03-23T10:06:09;420.20;;;336.10;;
21798;SDS011;24973;47.178;15.316;2024-03-23T10:08:56;423.07;;;344.60;;
21798;SDS011;24973;47.178;15.316;2024-03-23T10:11:44;428.30;;;351.50;;
21798;SDS011;24973;47.178;15.316;2024-03-23T10:14:36;428.60;;;360.57;;
21798;SDS011;24973;47.178;15.316;2024-03-23T10:17:24;416.87;;;362.90;;
21798;SDS011;24973;47.178;15.316;2024-03-23T10:20:11;407.33;;;347.27;;
21798;SDS011;24973;47.178;15.316;2024-03-23T10:22:59;420.93;;;368.67;;
21798;SDS011;24973;47.178;15.316;2024-03-23T10:25:47;418.10;;;358.53;;
21798;SDS011;24973;47.178;15.316;2024-03-23T10:28:35;415.70;;;356.67;;
21798;SDS011;24973;47.178;15.316;2024-03-23T10:31:23;427.90;;;366.87;;
21798;SDS011;24973;47.178;15.316;2024-03-23T10:34:12;419.43;;;369.07;;
21798;SDS011;24973;47.178;15.316;2024-03-23T10:36:59;442.60;;;394.60;;
21798;SDS011;24973;47.178;15.316;2024-03-23T10:39:50;429.83;;;383.17;;
21798;SDS011;24973;47.178;15.316;2024-03-23T10:42:37;437.53;;;389.70;;
21798;SDS011;24973;47.178;15.316;2024-03-23T10:45:25;426.20;;;379.30;;
21798;SDS011;24973;47.178;15.316;2024-03-23T10:48:15;428.07;;;381.23;;
21798;SDS011;24973;47.178;15.316;2024-03-23T10:51:03;423.60;;;376.80;;
21798;SDS011;24973;47.178;15.316;2024-03-23T10:53:53;422.97;;;371.63;;
21798;SDS011;24973;47.178;15.316;2024-03-23T10:56:41;429.40;;;380.67;;
21798;SDS011;24973;47.178;15.316;2024-03-23T10:59:30;426.30;;;379.50;;
21798;SDS011;24973;47.178;15.316;2024-03-23T11:02:18;432.10;;;385.87;;
21798;SDS011;24973;47.178;15.316;2024-03-23T11:08:29;453.83;;;406.97;;
21798;SDS011;24973;47.178;15.316;2024-03-23T11:11:22;466.57;;;418.63;;
21798;SDS011;24973;47.178;15.316;2024-03-23T11:14:21;495.23;;;446.73;;
21798;SDS011;24973;47.178;15.316;2024-03-23T11:17:10;498.57;;;449.37;;
21798;SDS011;24973;47.178;15.316;2024-03-23T11:19:58;508.50;;;459.23;;
21798;SDS011;24973;47.178;15.316;2024-03-23T11:22:48;522.60;;;472.03;;
21798;SDS011;24973;47.178;15.316;2024-03-23T11:25:37;523.27;;;473.10;;
21798;SDS011;24973;47.178;15.316;2024-03-23T11:28:25;517.97;;;469.30;;
21798;SDS011;24973;47.178;15.316;2024-03-23T11:31:13;553.40;;;500.60;;
21798;SDS011;24973;47.178;15.316;2024-03-23T11:34:02;525.40;;;475.90;;
21798;SDS011;24973;47.178;15.316;2024-03-23T11:36:53;537.53;;;487.73;;
21798;SDS011;24973;47.178;15.316;2024-03-23T11:39:52;540.80;;;490.90;;
21798;SDS011;24973;47.178;15.316;2024-03-23T11:42:39;558.37;;;507.60;;
21798;SDS011;24973;47.178;15.316;2024-03-23T11:45:27;555.50;;;505.73;;
21798;SDS011;24973;47.178;15.316;2024-03-23T11:48:15;566.57;;;516.47;;
21798;SDS011;24973;47.178;15.316;2024-03-23T11:51:05;588.63;;;537.87;;
21798;SDS011;24973;47.178;15.316;2024-03-23T11:53:52;593.27;;;541.93;;
21798;SDS011;24973;47.178;15.316;2024-03-23T11:56:41;603.17;;;550.83;;
21798;SDS011;24973;47.178;15.316;2024-03-23T11:59:41;580.30;;;528.93;;
21798;SDS011;24973;47.178;15.316;2024-03-23T12:02:29;542.93;;;493.37;;
21798;SDS011;24973;47.178;15.316;2024-03-23T12:05:17;514.43;;;465.40;;
21798;SDS011;24973;47.178;15.316;2024-03-23T12:08:15;507.07;;;458.00;;
21798;SDS011;24973;47.178;15.316;2024-03-23T12:11:07;486.73;;;438.77;;
21798;SDS011;24973;47.178;15.316;2024-03-23T12:13:59;488.63;;;439.63;;
21798;SDS011;24973;47.178;15.316;2024-03-23T12:16:46;486.20;;;436.83;;
21798;SDS011;24973;47.178;15.316;2024-03-23T12:19:34;458.30;;;410.97;;
21798;SDS011;24973;47.178;15.316;2024-03-23T12:22:21;451.23;;;404.03;;
21798;SDS011;24973;47.178;15.316;2024-03-23T12:25:09;446.67;;;399.37;;
21798;SDS011;24973;47.178;15.316;2024-03-23T12:27:57;472.63;;;424.53;;
21798;SDS011;24973;47.178;15.316;2024-03-23T12:30:47;482.93;;;434.17;;
21798;SDS011;24973;47.178;15.316;2024-03-23T12:33:34;488.07;;;439.40;;
21798;SDS011;24973;47.178;15.316;2024-03-23T12:36:23;482.43;;;434.50;;
21798;SDS011;24973;47.178;15.316;2024-03-23T12:39:09;469.90;;;421.90;;
21798;SDS011;24973;47.178;15.316;2024-03-23T12:41:57;469.43;;;421.23;;
21798;SDS011;24973;47.178;15.316;2024-03-23T12:44:44;494.10;;;444.83;;
21798;SDS011;24973;47.178;15.316;2024-03-23T12:47:34;491.27;;;443.43;;
21798;SDS011;24973;47.178;15.316;2024-03-23T12:50:20;523.27;;;474.23;;
21798;SDS011;24973;47.178;15.316;2024-03-23T12:53:08;516.77;;;467.73;;
21798;SDS011;24973;47.178;15.316;2024-03-23T12:55:55;504.63;;;456.33;;
21798;SDS011;24973;47.178;15.316;2024-03-23T12:58:44;506.30;;;456.50;;
21798;SDS011;24973;47.178;15.316;2024-03-23T13:01:31;499.43;;;451.23;;
21798;SDS011;24973;47.178;15.316;2024-03-23T13:04:20;513.40;;;464.30;;
21798;SDS011;24973;47.178;15.316;2024-03-23T13:07:07;518.03;;;468.90;;
21798;SDS011;24973;47.178;15.316;2024-03-23T13:09:55;556.37;;;505.53;;
21798;SDS011;24973;47.178;15.316;2024-03-23T13:12:43;563.67;;;512.90;;
21798;SDS011;24973;47.178;15.316;2024-03-23T13:15:30;574.90;;;524.63;;
21798;SDS011;24973;47.178;15.316;2024-03-23T13:18:18;604.90;;;553.73;;
21798;SDS011;24973;47.178;15.316;2024-03-23T13:21:06;620.93;;;568.93;;
21798;SDS011;24973;47.178;15.316;2024-03-23T13:23:54;640.53;;;587.87;;
21798;SDS011;24973;47.178;15.316;2024-03-23T13:26:41;657.40;;;604.73;;
21798;SDS011;24973;47.178;15.316;2024-03-23T13:29:29;678.70;;;625.17;;
21798;SDS011;24973;47.178;15.316;2024-03-23T13:32:17;699.93;;;646.13;;
21798;SDS011;24973;47.178;15.316;2024-03-23T13:35:04;705.35;;;651.42;;
21798;SDS011;24973;47.178;15.316;2024-03-23T13:37:54;705.33;;;651.67;;
21798;SDS011;24973;47.178;15.316;2024-03-23T13:40:49;727.92;;;672.67;;
21798;SDS011;24973;47.178;15.316;2024-03-23T13:43:41;736.60;;;681.05;;
21798;SDS011;24973;47.178;15.316;2024-03-23T13:46:29;722.20;;;668.35;;
21798;SDS011;24973;47.178;15.316;2024-03-23T13:49:23;729.33;;;675.17;;
21798;SDS011;24973;47.178;15.316;2024-03-23T13:52:13;720.08;;;666.08;;
21798;SDS011;24973;47.178;15.316;2024-03-23T13:55:01;721.17;;;666.67;;
21798;SDS011;24973;47.178;15.316;2024-03-23T13:57:53;696.10;;;642.60;;
21798;SDS011;24973;47.178;15.316;2024-03-23T14:00:40;693.67;;;639.00;;
21798;SDS011;24973;47.178;15.316;2024-03-23T14:03:28;667.17;;;613.73;;
21798;SDS011;24973;47.178;15.316;2024-03-23T14:06:15;638.83;;;587.47;;
21798;SDS011;24973;47.178;15.316;2024-03-23T14:09:03;625.27;;;573.87;;
21798;SDS011;24973;47.178;15.316;2024-03-23T14:11:52;607.93;;;559.73;;
21798;SDS011;24973;47.178;15.316;2024-03-23T14:14:40;601.00;;;550.93;;
21798;SDS011;24973;47.178;15.316;2024-03-23T14:17:27;592.23;;;542.93;;
21798;SDS011;24973;47.178;15.316;2024-03-23T14:20:15;587.73;;;542.03;;
21798;SDS011;24973;47.178;15.316;2024-03-23T14:23:02;577.80;;;534.47;;
21798;SDS011;24973;47.178;15.316;2024-03-23T14:25:52;592.67;;;547.43;;
21798;SDS011;24973;47.178;15.316;2024-03-23T14:28:41;561.30;;;512.67;;
21798;SDS011;24973;47.178;15.316;2024-03-23T14:31:29;529.33;;;479.27;;
21798;SDS011;24973;47.178;15.316;2024-03-23T14:34:16;496.50;;;448.93;;
21798;SDS011;24973;47.178;15.316;2024-03-23T14:37:04;477.10;;;432.27;;
21798;SDS011;24973;47.178;15.316;2024-03-23T14:39:52;472.20;;;431.53;;
21798;SDS011;24973;47.178;15.316;2024-03-23T14:42:40;483.67;;;442.90;;
21798;SDS011;24973;47.178;15.316;2024-03-23T14:45:29;476.13;;;438.87;;
21798;SDS011;24973;47.178;15.316;2024-03-23T14:48:16;490.73;;;454.07;;
21798;SDS011;24973;47.178;15.316;2024-03-23T14:51:04;482.23;;;444.70;;
21798;SDS011;24973;47.178;15.316;2024-03-23T14:53:52;470.73;;;429.90;;
21798;SDS011;24973;47.178;15.316;2024-03-23T14:56:40;456.90;;;413.67;;
21798;SDS011;24973;47.178;15.316;2024-03-23T14:59:27;428.53;;;388.47;;
21798;SDS011;24973;47.178;15.316;2024-03-23T15:02:17;382.53;;;352.10;;
21798;SDS011;24973;47.178;15.316;2024-03-23T15:05:04;358.60;;;329.13;;
21798;SDS011;24973;47.178;15.316;2024-03-23T15:07:55;313.57;;;288.83;;
21798;SDS011;24973;47.178;15.316;2024-03-23T15:10:43;308.93;;;282.70;;
21798;SDS011;24973;47.178;15.316;2024-03-23T15:13:31;275.67;;;252.67;;
21798;SDS011;24973;47.178;15.316;2024-03-23T15:16:19;269.77;;;245.23;;
21798;SDS011;24973;47.178;15.316;2024-03-23T15:19:07;237.60;;;217.20;;
21798;SDS011;24973;47.178;15.316;2024-03-23T15:21:55;192.37;;;177.80;;
21798;SDS011;24973;47.178;15.316;2024-03-23T15:24:42;154.73;;;144.03;;
21798;SDS011;24973;47.178;15.316;2024-03-23T15:27:30;166.70;;;154.63;;
21798;SDS011;24973;47.178;15.316;2024-03-23T15:30:17;151.93;;;141.33;;
21798;SDS011;24973;47.178;15.316;2024-03-23T15:33:06;147.87;;;136.60;;
21798;SDS011;24973;47.178;15.316;2024-03-23T15:35:54;140.63;;;130.23;;
21798;SDS011;24973;47.178;15.316;2024-03-23T15:38:45;149.77;;;136.83;;
21798;SDS011;24973;47.178;15.316;2024-03-23T15:41:34;128.30;;;118.33;;
21798;SDS011;24973;47.178;15.316;2024-03-23T15:44:22;137.77;;;125.77;;
21798;SDS011;24973;47.178;15.316;2024-03-23T15:47:10;148.10;;;133.43;;
21798;SDS011;24973;47.178;15.316;2024-03-23T15:49:57;149.77;;;133.87;;
21798;SDS011;24973;47.178;15.316;2024-03-23T15:52:46;143.13;;;127.53;;
21798;SDS011;24973;47.178;15.316;2024-03-23T15:55:33;129.50;;;115.67;;
21798;SDS011;24973;47.178;15.316;2024-03-23T15:58:21;134.40;;;120.23;;
21798;SDS011;24973;47.178;15.316;2024-03-23T16:01:10;124.77;;;110.07;;
21798;SDS011;24973;47.178;15.316;2024-03-23T16:03:56;135.77;;;113.40;;
21798;SDS011;24973;47.178;15.316;2024-03-23T16:06:44;157.80;;;116.00;;
21798;SDS011;24973;47.178;15.316;2024-03-23T16:09:33;166.60;;;113.07;;
21798;SDS011;24973;47.178;15.316;2024-03-23T16:12:21;136.47;;;103.50;;
21798;SDS011;24973;47.178;15.316;2024-03-23T16:15:08;182.67;;;106.07;;
21798;SDS011;24973;47.178;15.316;2024-03-23T16:17:56;190.80;;;112.77;;
21798;SDS011;24973;47.178;15.316;2024-03-23T16:20:51;197.23;;;109.53;;
21798;SDS011;24973;47.178;15.316;2024-03-23T16:23:42;283.60;;;130.67;;
21798;SDS011;24973;47.178;15.316;2024-03-23T16:26:32;263.13;;;117.70;;
21798;SDS011;24973;47.178;15.316;2024-03-23T16:29:20;254.50;;;121.30;;
21798;SDS011;24973;47.178;15.316;2024-03-23T16:32:06;213.00;;;107.47;;
21798;SDS011;24973;47.178;15.316;2024-03-23T16:34:54;210.30;;;104.07;;
21798;SDS011;24973;47.178;15.316;2024-03-23T16:37:41;203.57;;;103.60;;
21798;SDS011;24973;47.178;15.316;2024-03-23T16:40:29;184.97;;;96.07;;
21798;SDS011;24973;47.178;15.316;2024-03-23T16:43:17;177.70;;;94.43;;